createdAt,value
2019-01-19T00:02:27.019Z,64.60
2019-01-19T00:05:14.637Z,59.67
2019-01-19T00:08:22.724Z,52.70
2019-01-19T00:11:04.671Z,48.00
2019-01-19T00:14:12.723Z,52.87
2019-01-19T00:17:20.043Z,64.93
2019-01-19T00:20:16.766Z,72.73
2019-01-19T00:23:24.831Z,64.23
2019-01-19T00:26:25.079Z,53.83
2019-01-19T00:29:01.023Z,59.50
2019-01-19T00:32:08.274Z,55.07
2019-01-19T00:34:50.619Z,52.40
2019-01-19T00:37:57.963Z,53.97
2019-01-19T00:41:05.222Z,51.97
2019-01-19T00:44:12.524Z,49.30
2019-01-19T00:47:19.879Z,48.97
2019-01-19T00:49:59.454Z,56.07
2019-01-19T00:52:50.758Z,51.83
2019-01-19T00:55:58.847Z,42.70
2019-01-19T00:59:06.057Z,41.60
2019-01-19T01:02:06.735Z,44.87
2019-01-19T01:05:13.895Z,36.47
2019-01-19T01:08:21.042Z,38.63
2019-01-19T01:11:28.317Z,36.97
2019-01-19T01:14:38.718Z,40.40
2019-01-19T01:17:31.039Z,31.17
2019-01-19T01:20:39.095Z,35.37
2019-01-19T01:23:46.412Z,34.57
2019-01-19T01:26:53.713Z,39.17
2019-01-19T01:30:01.023Z,42.60
2019-01-19T01:32:35.999Z,45.77
2019-01-19T01:35:43.262Z,43.57
2019-01-19T01:38:50.504Z,40.60
2019-01-19T01:41:57.754Z,33.07
2019-01-19T01:44:48.799Z,40.10
2019-01-19T01:47:56.057Z,43.10
2019-01-19T01:50:56.816Z,44.20
2019-01-19T01:54:04.074Z,46.90
2019-01-19T01:56:32.497Z,41.17
2019-01-19T01:59:40.548Z,45.77
2019-01-19T02:02:50.772Z,45.70
2019-01-19T02:05:51.887Z,48.37
2019-01-19T02:12:39.595Z,56.30
2019-01-19T02:15:34.244Z,44.17
2019-01-19T02:18:27.198Z,40.13
2019-01-19T02:21:35.252Z,33.60
2019-01-19T02:24:42.559Z,34.37
2019-01-19T02:27:50.624Z,28.23
2019-01-19T02:30:57.824Z,30.23
2019-01-19T02:34:05.894Z,27.50
2019-01-19T02:37:13.060Z,24.43
2019-01-19T02:40:13.300Z,26.40
2019-01-19T02:43:20.561Z,26.97
2019-01-19T02:46:27.975Z,28.17
2019-01-19T02:49:36.471Z,29.77
2019-01-19T02:52:31.225Z,28.90
2019-01-19T02:55:39.179Z,28.60
2019-01-19T03:02:07.251Z,32.30
2019-01-19T03:04:57.533Z,33.23
2019-01-19T03:07:49.530Z,30.60
2019-01-19T03:10:57.574Z,31.67
2019-01-19T03:13:54.662Z,33.17
2019-01-19T03:16:53.015Z,30.07
2019-01-19T03:20:00.309Z,30.37
2019-01-19T03:22:53.622Z,32.97
2019-01-19T03:26:00.781Z,36.43
2019-01-19T03:29:08.031Z,42.50
2019-01-19T03:32:15.189Z,34.87
2019-01-19T03:35:22.443Z,38.73
2019-01-19T03:38:26.711Z,41.53
2019-01-19T03:41:34.157Z,41.30
2019-01-19T03:44:33.539Z,39.37
2019-01-19T03:47:41.588Z,44.53
2019-01-19T03:50:48.899Z,38.53
2019-01-19T03:53:57.130Z,42.50
2019-01-19T03:57:13.297Z,45.70
2019-01-19T04:00:20.708Z,37.23
2019-01-19T04:03:28.769Z,44.60
2019-01-19T04:06:36.021Z,44.93
2019-01-19T04:09:48.297Z,43.50
2019-01-19T04:12:55.652Z,43.90
2019-01-19T04:16:03.016Z,47.63
2019-01-19T04:19:10.364Z,42.47
2019-01-19T04:22:17.623Z,38.33
2019-01-19T04:25:00.473Z,44.67
2019-01-19T04:27:29.016Z,61.83
2019-01-19T04:29:57.636Z,76.47
2019-01-19T04:32:26.946Z,75.73
2019-01-19T04:34:56.262Z,80.53
2019-01-19T04:37:25.612Z,74.10
2019-01-19T04:39:54.927Z,87.83
2019-01-19T04:42:23.663Z,83.43
2019-01-19T04:44:52.180Z,84.50
2019-01-19T04:47:21.505Z,89.47
2019-01-19T04:49:50.025Z,87.90
2019-01-19T04:52:18.561Z,91.17
2019-01-19T04:54:48.497Z,88.30
2019-01-19T04:57:37.188Z,79.37
2019-01-19T05:03:10.743Z,85.03
2019-01-19T05:05:39.258Z,98.53
2019-01-19T05:08:08.587Z,84.20
2019-01-19T05:10:37.909Z,84.50
2019-01-19T05:13:07.236Z,87.73
2019-01-19T05:15:36.560Z,84.40
2019-01-19T05:23:43.099Z,69.77
2019-01-19T05:26:11.623Z,74.20
2019-01-19T05:28:40.957Z,72.07
2019-01-19T05:31:10.282Z,75.03
2019-01-19T05:33:39.619Z,72.03
2019-01-19T05:36:08.925Z,70.43
2019-01-19T05:38:38.253Z,72.00
2019-01-19T05:41:07.592Z,80.87
2019-01-19T05:43:37.129Z,82.20
2019-01-19T05:46:06.557Z,94.00
2019-01-19T05:48:35.083Z,89.43
2019-01-19T05:51:04.409Z,100.83
2019-01-19T05:53:32.939Z,104.80
2019-01-19T05:56:02.263Z,97.60
2019-01-19T05:58:31.594Z,92.57
2019-01-19T06:01:00.111Z,97.97
2019-01-19T06:03:29.464Z,92.40
2019-01-19T06:05:59.117Z,93.33
2019-01-19T06:08:28.451Z,112.97
2019-01-19T06:10:57.774Z,108.17
2019-01-19T06:13:26.300Z,106.47
2019-01-19T06:15:54.920Z,101.90
2019-01-19T06:18:23.494Z,85.57
2019-01-19T06:20:52.973Z,79.87
2019-01-19T06:23:22.503Z,65.03
2019-01-19T06:25:51.023Z,72.33
2019-01-19T06:28:20.429Z,71.87
2019-01-19T06:30:49.739Z,75.83
2019-01-19T06:33:18.262Z,69.80
2019-01-19T06:35:46.694Z,78.13
2019-01-19T06:38:16.045Z,68.47
2019-01-19T06:40:45.372Z,75.93
2019-01-19T06:43:14.692Z,73.93
2019-01-19T06:45:44.032Z,63.53
2019-01-19T06:48:13.342Z,62.80
2019-01-19T06:50:42.674Z,67.00
2019-01-19T06:53:12.005Z,72.57
2019-01-19T06:55:41.364Z,75.43
2019-01-19T06:58:09.988Z,96.17
2019-01-19T07:00:38.600Z,108.20
2019-01-19T07:03:07.938Z,106.97
2019-01-19T07:05:37.273Z,101.23
2019-01-19T07:08:06.590Z,88.47
2019-01-19T07:10:35.915Z,84.70
2019-01-19T07:13:05.337Z,86.80
2019-01-19T07:15:34.649Z,77.90
2019-01-19T07:18:04.012Z,80.27
2019-01-19T07:20:32.557Z,89.47
2019-01-19T07:23:01.906Z,93.80
2019-01-19T07:25:30.436Z,111.77
2019-01-19T07:27:59.795Z,114.50
2019-01-19T07:30:29.122Z,114.83
2019-01-19T07:32:58.890Z,124.13
2019-01-19T07:35:28.320Z,140.20
2019-01-19T07:37:57.650Z,140.77
2019-01-19T07:40:27.019Z,167.07
2019-01-19T07:45:54.870Z,175.03
2019-01-19T07:48:24.204Z,182.03
2019-01-19T07:50:53.560Z,163.70
2019-01-19T07:53:22.292Z,161.40
2019-01-19T07:55:51.724Z,149.07
2019-01-19T08:01:04.282Z,147.63
2019-01-19T08:06:36.856Z,148.90
2019-01-19T08:09:10.262Z,176.40
2019-01-19T08:11:39.703Z,184.93
2019-01-19T08:14:09.043Z,209.73
2019-01-19T08:16:38.489Z,232.87
2019-01-19T08:19:06.972Z,251.70
2019-01-19T08:21:35.588Z,242.17
2019-01-19T08:24:04.175Z,215.00
2019-01-19T08:26:33.508Z,183.43
2019-01-19T08:31:46.035Z,144.13
2019-01-19T08:34:15.356Z,137.90
2019-01-19T08:36:43.878Z,142.63
2019-01-19T08:39:13.222Z,133.43
2019-01-19T08:41:42.713Z,124.50
2019-01-19T08:44:12.029Z,128.40
2019-01-19T08:46:41.351Z,121.90
2019-01-19T08:49:10.683Z,122.87
2019-01-19T08:51:39.811Z,120.03
2019-01-19T08:54:10.022Z,123.43
2019-01-19T08:56:38.558Z,121.27
2019-01-19T08:59:07.089Z,133.80
2019-01-19T09:01:36.406Z,125.30
2019-01-19T09:04:05.570Z,120.07
2019-01-19T09:06:35.700Z,129.00
2019-01-19T09:12:10.617Z,144.70
2019-01-19T09:14:40.987Z,135.80
2019-01-19T09:17:11.006Z,146.37
2019-01-19T09:19:40.538Z,144.40
2019-01-19T09:22:29.496Z,145.53
2019-01-19T09:24:58.847Z,162.23
2019-01-19T09:27:27.373Z,151.93
2019-01-19T09:29:56.738Z,140.47
2019-01-19T09:32:25.397Z,142.43
2019-01-19T09:34:54.740Z,114.87
2019-01-19T09:37:24.077Z,115.83
2019-01-19T09:39:52.610Z,110.90
2019-01-19T09:42:21.052Z,94.87
2019-01-19T09:44:50.375Z,78.30
2019-01-19T09:47:18.918Z,89.13
2019-01-19T09:49:48.255Z,68.97
2019-01-19T09:52:21.301Z,65.83
2019-01-19T09:54:48.029Z,67.60
2019-01-19T09:57:16.562Z,46.17
2019-01-19T09:59:45.878Z,54.37
2019-01-19T10:02:14.406Z,44.00
2019-01-19T10:04:43.736Z,34.93
2019-01-19T10:07:12.500Z,31.07
2019-01-19T10:09:42.305Z,30.70
2019-01-19T10:12:10.971Z,29.70
2019-01-19T10:14:40.737Z,41.70
2019-01-19T10:17:10.095Z,29.93
2019-01-19T10:19:39.432Z,33.83
2019-01-19T10:22:08.884Z,32.20
2019-01-19T10:24:38.219Z,32.97
2019-01-19T10:27:07.561Z,29.40
2019-01-19T10:29:36.204Z,33.27
2019-01-19T10:32:04.646Z,33.77
2019-01-19T10:34:33.175Z,35.03
2019-01-19T10:37:02.619Z,37.00
2019-01-19T10:39:31.950Z,38.30
2019-01-19T10:42:01.276Z,31.17
2019-01-19T10:44:29.813Z,28.10
2019-01-19T10:46:58.339Z,26.23
2019-01-19T10:49:26.868Z,22.90
2019-01-19T10:51:59.452Z,24.60
2019-01-19T10:54:45.566Z,24.20
2019-01-19T10:57:14.898Z,20.63
2019-01-19T10:59:44.246Z,26.50
2019-01-19T11:02:13.576Z,26.47
2019-01-19T11:04:43.066Z,26.03
2019-01-19T11:07:12.523Z,26.03
2019-01-19T11:09:41.862Z,24.43
2019-01-19T11:12:10.400Z,25.37
2019-01-19T11:14:39.796Z,29.23
2019-01-19T11:17:09.136Z,35.67
2019-01-19T11:19:38.479Z,91.43
2019-01-19T11:22:07.231Z,66.70
2019-01-19T11:24:35.757Z,87.20
2019-01-19T11:27:05.104Z,108.30
2019-01-19T11:29:34.432Z,122.70
2019-01-19T11:32:04.022Z,107.47
2019-01-19T11:34:33.359Z,101.80
2019-01-19T11:37:01.844Z,90.30
2019-01-19T11:39:30.471Z,116.63
2019-01-19T11:41:59.794Z,111.77
2019-01-19T11:44:28.245Z,92.80
2019-01-19T11:46:57.658Z,96.87
2019-01-19T11:49:26.997Z,84.87
2019-01-19T11:51:56.360Z,69.93
2019-01-19T11:54:25.883Z,67.97
2019-01-19T11:56:54.415Z,63.50
2019-01-19T11:59:23.755Z,57.83
2019-01-19T12:01:53.088Z,55.43
2019-01-19T12:04:21.520Z,53.47
2019-01-19T12:06:49.937Z,56.17
2019-01-19T12:09:18.479Z,62.80
2019-01-19T12:11:47.869Z,68.67
2019-01-19T12:14:17.206Z,130.37
2019-01-19T12:16:46.523Z,208.37
2019-01-19T12:19:15.857Z,95.70
2019-01-19T12:21:44.862Z,79.23
2019-01-19T12:24:13.513Z,66.97
2019-01-19T12:26:42.052Z,116.17
2019-01-19T12:29:10.488Z,73.07
2019-01-19T12:31:39.129Z,70.07
2019-01-19T12:34:08.485Z,74.03
2019-01-19T12:36:36.911Z,65.20
2019-01-19T12:39:07.683Z,64.93
2019-01-19T12:41:36.324Z,76.93
2019-01-19T12:44:06.526Z,138.63
2019-01-19T12:46:35.073Z,103.07
2019-01-19T12:49:04.802Z,94.27
2019-01-19T12:51:33.345Z,89.30
2019-01-19T12:54:02.784Z,92.60
2019-01-19T12:56:31.316Z,96.87
2019-01-19T12:59:00.667Z,104.97
2019-01-19T13:01:30.005Z,95.57
2019-01-19T13:03:59.448Z,90.70
2019-01-19T13:07:07.498Z,81.83
2019-01-19T13:09:39.459Z,79.13
2019-01-19T13:12:31.400Z,81.83
2019-01-19T13:15:49.224Z,88.37
2019-01-19T13:18:57.894Z,95.57
2019-01-19T13:22:05.231Z,85.77
2019-01-19T13:24:57.724Z,91.10
2019-01-19T13:28:04.972Z,85.70
2019-01-19T13:31:12.136Z,75.87
2019-01-19T13:34:19.557Z,78.83
2019-01-19T13:37:14.969Z,74.53
2019-01-19T13:40:07.215Z,69.90
2019-01-19T13:43:10.275Z,72.27
2019-01-19T13:46:01.412Z,71.30
2019-01-19T13:49:09.460Z,69.00
2019-01-19T13:52:09.413Z,69.90
2019-01-19T13:55:16.597Z,69.57
2019-01-19T13:58:16.413Z,72.23
2019-01-19T14:01:24.462Z,76.47
2019-01-19T14:04:31.819Z,82.43
2019-01-19T14:07:34.249Z,94.07
2019-01-19T14:10:30.528Z,91.20
2019-01-19T14:13:37.784Z,117.97
2019-01-19T14:16:45.143Z,110.17
2019-01-19T14:19:52.452Z,103.17
2019-01-19T14:23:00.516Z,94.20
2019-01-19T14:26:07.660Z,94.87
2019-01-19T14:29:14.906Z,78.87
2019-01-19T14:32:22.230Z,85.30
2019-01-19T14:35:29.545Z,106.87
2019-01-19T14:38:33.848Z,113.40
2019-01-19T14:41:36.437Z,101.53
2019-01-19T14:44:44.488Z,105.63
2019-01-19T14:47:51.743Z,110.20
2019-01-19T14:50:59.013Z,97.23
2019-01-19T14:53:54.152Z,117.77
2019-01-19T14:56:53.957Z,118.00
2019-01-19T14:59:30.848Z,114.17
2019-01-19T15:02:38.899Z,146.20
2019-01-19T15:05:30.608Z,151.37
2019-01-19T15:08:25.353Z,152.73
2019-01-19T15:11:26.435Z,152.77
2019-01-19T15:14:33.958Z,151.63
2019-01-19T15:17:30.644Z,151.13
2019-01-19T15:20:31.501Z,146.87
2019-01-19T15:23:39.556Z,139.53
2019-01-19T15:26:46.806Z,126.03
2019-01-19T15:29:53.980Z,135.97
2019-01-19T15:32:46.820Z,144.23
2019-01-19T15:35:54.164Z,145.67
2019-01-19T15:38:53.222Z,136.43
2019-01-19T15:42:00.469Z,123.03
2019-01-19T15:45:07.722Z,149.43
2019-01-19T15:48:15.190Z,151.27
2019-01-19T15:51:14.090Z,163.13
2019-01-19T15:54:22.198Z,141.67
2019-01-19T15:57:30.255Z,154.07
2019-01-19T16:00:26.712Z,161.20
2019-01-19T16:03:34.431Z,154.63
2019-01-19T16:06:43.591Z,160.67
2019-01-19T16:09:50.758Z,165.37
2019-01-19T16:12:46.101Z,148.17
2019-01-19T16:15:47.307Z,144.13
2019-01-19T16:18:55.434Z,131.73
2019-01-19T16:22:02.797Z,126.77
2019-01-19T16:25:10.147Z,111.27
2019-01-19T16:28:17.563Z,111.33
2019-01-19T16:31:25.621Z,103.63
2019-01-19T16:34:32.984Z,98.53
2019-01-19T16:37:40.241Z,102.33
2019-01-19T16:40:47.671Z,82.60
2019-01-19T16:43:39.194Z,87.20
2019-01-19T16:46:31.092Z,80.97
2019-01-19T16:49:14.752Z,83.83
2019-01-19T16:52:22.828Z,82.70
2019-01-19T16:55:30.504Z,70.83
2019-01-19T16:58:37.771Z,78.10
2019-01-19T17:01:45.031Z,72.80
2019-01-19T17:04:55.350Z,75.60
2019-01-19T17:08:03.408Z,72.40
2019-01-19T17:11:10.769Z,76.10
2019-01-19T17:14:18.019Z,70.97
2019-01-19T17:17:03.350Z,76.03
2019-01-19T17:20:10.670Z,69.53
2019-01-19T17:23:18.801Z,73.87
2019-01-19T17:26:02.818Z,66.43
2019-01-19T17:29:10.158Z,66.23
2019-01-19T17:31:48.194Z,69.17
2019-01-19T17:34:40.355Z,64.60
2019-01-19T17:37:48.412Z,64.73
2019-01-19T17:40:55.665Z,67.27
2019-01-19T17:44:03.078Z,64.93
2019-01-19T17:47:11.134Z,68.90
2019-01-19T17:50:18.378Z,77.43
2019-01-19T17:53:18.875Z,74.57
2019-01-19T17:56:26.189Z,66.60
2019-01-19T17:59:27.234Z,53.80
2019-01-19T18:02:34.586Z,58.77
2019-01-19T18:05:41.839Z,61.53
2019-01-19T18:08:49.295Z,55.47
2019-01-19T18:11:56.700Z,63.23
2019-01-19T18:15:04.746Z,74.17
2019-01-19T18:17:57.544Z,80.17
2019-01-19T18:21:04.747Z,79.70
2019-01-19T18:23:52.770Z,61.40
2019-01-19T18:26:53.552Z,68.27
2019-01-19T18:30:01.596Z,53.20
2019-01-19T18:33:08.866Z,53.17
2019-01-19T18:36:16.123Z,67.53
2019-01-19T18:39:20.497Z,86.10
2019-01-19T18:42:27.746Z,70.30
2019-01-19T18:45:35.054Z,76.83
2019-01-19T18:48:27.990Z,79.87
2019-01-19T18:51:36.165Z,76.50
2019-01-19T18:54:37.350Z,69.53
2019-01-19T18:57:45.398Z,71.63
2019-01-19T19:00:34.649Z,63.70
2019-01-19T19:03:42.758Z,54.63
2019-01-19T19:06:50.036Z,59.80
2019-01-19T19:09:38.129Z,62.50
2019-01-19T19:12:46.177Z,58.70
2019-01-19T19:15:55.277Z,61.23
2019-01-19T19:18:46.126Z,57.27
2019-01-19T19:21:42.045Z,61.53
2019-01-19T19:24:49.340Z,72.53
2019-01-19T19:27:56.541Z,57.57
2019-01-19T19:31:03.860Z,60.67
2019-01-19T19:34:11.217Z,62.47
2019-01-19T19:37:18.566Z,66.27
2019-01-19T19:40:19.088Z,65.87
2019-01-19T19:43:27.137Z,68.80
2019-01-19T19:46:28.096Z,60.23
2019-01-19T19:49:36.221Z,64.63
2019-01-19T19:52:05.827Z,66.03
2019-01-19T19:54:35.325Z,64.57
2019-01-19T19:57:04.394Z,62.33
2019-01-19T19:59:32.909Z,69.13
2019-01-19T20:02:02.242Z,60.67
2019-01-19T20:07:33.958Z,71.03
2019-01-19T20:13:05.319Z,71.03
2019-01-19T20:15:34.646Z,83.20
2019-01-19T20:18:04.357Z,69.37
2019-01-19T20:20:33.718Z,89.60
2019-01-19T20:23:03.161Z,86.27
2019-01-19T20:25:32.475Z,81.83
2019-01-19T20:28:01.907Z,82.00
2019-01-19T20:30:31.240Z,91.67
2019-01-19T20:33:00.595Z,78.67
2019-01-19T20:35:29.224Z,76.07
2019-01-19T20:37:57.873Z,77.37
2019-01-19T20:40:26.410Z,71.87
2019-01-19T20:42:55.736Z,69.13
2019-01-19T20:45:25.061Z,67.30
2019-01-19T20:47:54.385Z,59.83
2019-01-19T20:50:23.709Z,68.13
2019-01-19T20:52:53.048Z,71.37
2019-01-19T20:55:22.493Z,67.27
2019-01-19T20:57:51.830Z,70.43
2019-01-19T21:00:21.439Z,71.10
2019-01-19T21:02:49.967Z,67.40
2019-01-19T21:05:19.300Z,65.60
2019-01-19T21:07:48.664Z,65.80
2019-01-19T21:10:17.986Z,67.00
2019-01-19T21:12:47.327Z,76.37
2019-01-19T21:15:16.760Z,73.73
2019-01-19T21:17:46.076Z,72.30
2019-01-19T21:20:15.413Z,69.93
2019-01-19T21:22:44.818Z,67.17
2019-01-19T21:25:14.375Z,66.97
2019-01-19T21:27:43.699Z,68.37
2019-01-19T21:30:12.843Z,72.87
2019-01-19T21:32:41.463Z,68.17
2019-01-19T21:35:11.201Z,69.70
2019-01-19T21:37:40.525Z,72.30
2019-01-19T21:43:12.757Z,65.67
2019-01-19T21:45:42.077Z,56.70
2019-01-19T21:48:10.605Z,65.27
2019-01-19T21:50:40.036Z,69.73
2019-01-19T21:53:09.368Z,63.90
2019-01-19T21:55:38.790Z,65.97
2019-01-19T21:58:08.111Z,62.20
2019-01-19T22:00:37.431Z,65.10
2019-01-19T22:03:06.770Z,73.97
2019-01-19T22:05:35.183Z,65.50
2019-01-19T22:08:04.605Z,71.77
2019-01-19T22:10:33.243Z,72.50
2019-01-19T22:13:02.569Z,66.77
2019-01-19T22:15:31.896Z,68.47
2019-01-19T22:18:01.221Z,64.97
2019-01-19T22:20:30.581Z,65.00
2019-01-19T22:22:59.930Z,66.00
2019-01-19T22:25:29.263Z,68.37
2019-01-19T22:27:58.589Z,63.87
2019-01-19T22:30:27.921Z,69.20
2019-01-19T22:32:57.358Z,67.03
2019-01-19T22:38:22.982Z,72.13
2019-01-19T22:40:53.737Z,77.97
2019-01-19T22:43:41.536Z,78.87
2019-01-19T22:46:10.939Z,76.60
2019-01-19T22:48:40.270Z,74.27
2019-01-19T22:51:11.310Z,76.97
2019-01-19T22:53:58.820Z,77.90
2019-01-19T22:56:28.147Z,82.20
2019-01-19T22:58:56.571Z,76.93
2019-01-19T23:02:04.629Z,88.27
2019-01-19T23:04:33.138Z,85.00
2019-01-19T23:07:02.466Z,84.27
2019-01-19T23:09:31.783Z,72.57
2019-01-19T23:12:01.207Z,70.93
2019-01-19T23:14:31.432Z,66.43
2019-01-19T23:16:59.861Z,67.53
2019-01-19T23:19:29.306Z,72.83
2019-01-19T23:21:58.605Z,62.90
2019-01-19T23:24:27.933Z,66.27
2019-01-19T23:27:16.706Z,65.23
2019-01-19T23:29:45.434Z,69.87
2019-01-19T23:32:14.755Z,67.37
2019-01-19T23:34:44.076Z,64.80
2019-01-19T23:37:13.398Z,66.67
2019-01-19T23:39:42.751Z,66.00
2019-01-19T23:42:11.160Z,65.43
2019-01-19T23:44:39.688Z,63.30
2019-01-19T23:47:09.013Z,68.53
2019-01-19T23:49:38.344Z,65.67
2019-01-19T23:52:07.771Z,68.17
2019-01-19T23:54:37.109Z,64.30
2019-01-19T23:57:06.430Z,68.10
2019-01-19T23:59:34.853Z,65.90
